createdAt,value
2023-04-30T00:01:22.289Z,82.59
2023-04-30T00:03:48.927Z,81.84
2023-04-30T00:06:16.091Z,82.10
2023-04-30T00:08:42.705Z,82.34
2023-04-30T00:11:09.204Z,82.71
2023-04-30T00:13:35.825Z,82.28
2023-04-30T00:16:02.402Z,82.57
2023-04-30T00:18:29.157Z,82.47
2023-04-30T00:20:55.716Z,82.42
2023-04-30T00:23:22.283Z,82.67
2023-04-30T00:25:48.871Z,82.78
2023-04-30T00:28:15.406Z,82.78
2023-04-30T00:30:41.898Z,82.26
2023-04-30T00:33:08.626Z,83.27
2023-04-30T00:35:35.257Z,82.97
2023-04-30T00:38:01.833Z,82.66
2023-04-30T00:40:28.432Z,82.82
2023-04-30T00:42:55.781Z,82.34
2023-04-30T00:45:23.393Z,82.89
2023-04-30T00:47:50.200Z,83.30
2023-04-30T00:50:16.871Z,83.25
2023-04-30T00:52:44.376Z,83.11
2023-04-30T00:55:14.196Z,83.13
2023-04-30T00:57:41.006Z,83.42
2023-04-30T01:00:11.250Z,83.79
2023-04-30T01:02:38.198Z,84.04
2023-04-30T01:05:05.506Z,83.44
2023-04-30T01:07:33.279Z,83.75
2023-04-30T01:10:00.416Z,83.65
2023-04-30T01:12:37.480Z,84.11
2023-04-30T01:15:36.174Z,84.07
2023-04-30T01:18:12.706Z,83.96
2023-04-30T01:20:48.602Z,84.52
2023-04-30T01:23:36.152Z,84.09
2023-04-30T01:26:22.938Z,84.11
2023-04-30T01:28:51.326Z,84.17
2023-04-30T01:31:23.933Z,84.21
2023-04-30T01:33:50.468Z,84.20
2023-04-30T01:36:35.935Z,84.23
2023-04-30T01:39:28.380Z,84.42
2023-04-30T01:42:02.291Z,84.56
2023-04-30T01:44:37.820Z,85.03
2023-04-30T01:47:39.109Z,84.82
2023-04-30T01:50:52.027Z,84.88
2023-04-30T01:53:27.290Z,84.96
2023-04-30T01:55:59.678Z,85.53
2023-04-30T01:58:27.752Z,85.57
2023-04-30T02:00:54.272Z,85.89
2023-04-30T02:03:20.938Z,86.38
2023-04-30T02:05:48.531Z,85.55
2023-04-30T02:08:15.090Z,86.25
2023-04-30T02:10:41.775Z,85.60
2023-04-30T02:13:08.431Z,85.49
2023-04-30T02:15:34.996Z,85.54
2023-04-30T02:18:01.636Z,85.26
2023-04-30T02:20:28.339Z,85.57
2023-04-30T02:22:54.909Z,86.14
2023-04-30T02:25:21.457Z,86.10
2023-04-30T02:27:48.086Z,85.58
2023-04-30T02:30:14.660Z,85.92
2023-04-30T02:32:41.269Z,85.82
2023-04-30T02:35:08.141Z,85.33
2023-04-30T02:37:34.627Z,86.18
2023-04-30T02:40:01.153Z,86.02
2023-04-30T02:42:27.710Z,85.99
2023-04-30T02:44:54.230Z,85.55
2023-04-30T02:47:20.712Z,86.28
2023-04-30T02:49:47.372Z,85.90
2023-04-30T02:52:13.900Z,85.52
2023-04-30T02:54:40.536Z,86.17
2023-04-30T02:57:07.326Z,86.13
2023-04-30T02:59:33.845Z,86.23
2023-04-30T03:02:00.437Z,85.92
2023-04-30T03:04:26.937Z,86.11
2023-04-30T03:06:53.551Z,86.08
2023-04-30T03:09:21.613Z,86.47
2023-04-30T03:11:48.139Z,86.32
2023-04-30T03:14:14.668Z,86.04
2023-04-30T03:16:41.465Z,86.09
2023-04-30T03:19:08.097Z,86.48
2023-04-30T03:21:34.594Z,86.60
2023-04-30T03:24:01.127Z,86.42
2023-04-30T03:26:27.982Z,86.68
2023-04-30T03:28:55.722Z,86.63
2023-04-30T03:31:22.350Z,86.85
2023-04-30T03:33:49.088Z,86.59
2023-04-30T03:36:15.864Z,86.63
2023-04-30T03:38:42.880Z,87.04
2023-04-30T03:41:09.630Z,86.20
2023-04-30T03:43:36.953Z,86.88
2023-04-30T03:46:03.659Z,86.69
2023-04-30T03:48:30.204Z,86.47
2023-04-30T03:50:56.773Z,86.30
2023-04-30T03:53:24.419Z,86.39
2023-04-30T03:55:51.221Z,86.10
2023-04-30T03:58:17.934Z,87.07
2023-04-30T04:00:45.770Z,87.06
2023-04-30T04:03:12.759Z,87.12
2023-04-30T04:05:39.397Z,87.13
2023-04-30T04:08:06.405Z,87.13
2023-04-30T04:10:34.948Z,86.71
2023-04-30T04:13:01.660Z,87.29
2023-04-30T04:15:28.224Z,86.82
2023-04-30T04:17:54.781Z,87.23
2023-04-30T04:20:21.416Z,87.17
2023-04-30T04:22:47.959Z,87.04
2023-04-30T04:25:15.110Z,86.37
2023-04-30T04:27:42.154Z,87.40
2023-04-30T04:30:09.272Z,86.87
2023-04-30T04:32:49.858Z,87.75
2023-04-30T04:35:19.012Z,86.97
2023-04-30T04:37:45.577Z,87.81
2023-04-30T04:40:12.448Z,87.25
2023-04-30T04:42:39.157Z,87.45
2023-04-30T04:45:09.951Z,87.81
2023-04-30T04:47:37.685Z,86.97
2023-04-30T04:50:04.530Z,87.37
2023-04-30T04:52:31.236Z,87.82
2023-04-30T04:54:58.315Z,88.13
2023-04-30T04:57:24.994Z,87.64
2023-04-30T04:59:51.705Z,88.16
2023-04-30T05:02:18.590Z,88.36
2023-04-30T05:04:47.238Z,88.80
2023-04-30T05:07:13.771Z,88.43
2023-04-30T05:09:40.271Z,89.05
2023-04-30T05:12:06.906Z,88.60
2023-04-30T05:14:33.397Z,87.75
2023-04-30T05:16:59.956Z,88.32
2023-04-30T05:19:26.598Z,88.55
2023-04-30T05:21:53.113Z,88.20
2023-04-30T05:24:19.720Z,89.57
2023-04-30T05:26:46.408Z,89.04
2023-04-30T05:29:13.183Z,90.11
2023-04-30T05:31:39.849Z,88.82
2023-04-30T05:34:06.522Z,89.45
2023-04-30T05:36:33.220Z,87.54
2023-04-30T05:38:59.809Z,88.16
2023-04-30T05:41:26.447Z,87.74
2023-04-30T05:43:52.957Z,88.57
2023-04-30T05:46:19.941Z,88.55
2023-04-30T05:48:46.615Z,88.53
2023-04-30T05:51:13.163Z,88.75
2023-04-30T05:53:39.831Z,88.00
2023-04-30T05:56:06.499Z,88.13
2023-04-30T05:58:35.013Z,86.87
2023-04-30T06:01:01.557Z,87.96
2023-04-30T06:03:28.044Z,87.59
2023-04-30T06:05:54.656Z,88.28
2023-04-30T06:08:21.243Z,88.16
2023-04-30T06:10:48.481Z,87.85
2023-04-30T06:13:15.358Z,88.15
2023-04-30T06:15:41.964Z,87.40
2023-04-30T06:18:08.655Z,87.45
2023-04-30T06:20:35.303Z,86.12
2023-04-30T06:23:03.717Z,84.81
2023-04-30T06:25:30.510Z,84.26
2023-04-30T06:27:57.074Z,83.36
2023-04-30T06:30:23.668Z,82.63
2023-04-30T06:32:50.228Z,81.98
2023-04-30T06:35:16.795Z,81.21
2023-04-30T06:37:43.405Z,81.22
2023-04-30T06:40:10.340Z,80.38
2023-04-30T06:42:36.937Z,78.92
2023-04-30T06:45:04.428Z,78.83
2023-04-30T06:47:38.318Z,78.43
2023-04-30T06:50:05.446Z,75.59
2023-04-30T06:52:32.077Z,75.33
2023-04-30T06:54:58.582Z,74.61
2023-04-30T06:57:25.795Z,73.99
2023-04-30T06:59:52.614Z,73.22
2023-04-30T07:02:21.800Z,74.65
2023-04-30T07:04:49.436Z,72.91
2023-04-30T07:07:16.141Z,72.32
2023-04-30T07:09:42.688Z,70.42
2023-04-30T07:12:11.023Z,68.94
2023-04-30T07:14:37.632Z,67.52
2023-04-30T07:17:04.249Z,68.01
2023-04-30T07:19:30.834Z,66.18
2023-04-30T07:24:40.152Z,66.15
2023-04-30T07:40:35.420Z,64.34
2023-04-30T07:43:04.730Z,63.54
2023-04-30T07:45:31.980Z,61.91
2023-04-30T07:47:58.973Z,62.69
2023-04-30T07:50:25.709Z,62.10
2023-04-30T07:52:55.314Z,64.10
2023-04-30T07:55:23.254Z,61.62
2023-04-30T07:57:50.027Z,60.71
2023-04-30T08:00:17.704Z,60.62
2023-04-30T08:02:46.096Z,61.03
2023-04-30T08:05:13.151Z,61.97
2023-04-30T08:07:41.830Z,61.21
2023-04-30T08:10:08.897Z,60.49
2023-04-30T08:12:39.067Z,60.91
2023-04-30T08:15:07.825Z,59.79
2023-04-30T08:17:35.446Z,60.28
2023-04-30T08:20:06.076Z,60.62
2023-04-30T08:22:33.886Z,60.24
2023-04-30T08:25:02.091Z,60.21
2023-04-30T08:27:32.458Z,57.83
2023-04-30T08:30:01.427Z,59.35
2023-04-30T08:32:28.374Z,55.73
2023-04-30T08:34:57.949Z,56.17
2023-04-30T08:37:24.788Z,55.31
2023-04-30T08:39:51.643Z,55.25
2023-04-30T08:42:21.704Z,55.74
2023-04-30T08:44:48.546Z,55.47
2023-04-30T08:47:18.230Z,56.03
2023-04-30T08:49:47.554Z,57.92
2023-04-30T08:52:16.159Z,57.25
2023-04-30T08:54:45.027Z,51.99
2023-04-30T08:57:11.959Z,53.58
2023-04-30T08:59:42.832Z,55.78
2023-04-30T09:02:10.531Z,54.86
2023-04-30T09:04:37.971Z,52.12
2023-04-30T09:07:09.431Z,55.65
2023-04-30T09:09:39.911Z,48.37
2023-04-30T09:12:21.009Z,52.21
2023-04-30T09:15:01.556Z,50.18
2023-04-30T09:17:28.967Z,49.06
2023-04-30T09:20:07.508Z,51.73
2023-04-30T09:22:36.930Z,50.26
2023-04-30T09:25:05.017Z,49.46
2023-04-30T09:27:31.889Z,50.53
2023-04-30T09:29:58.739Z,52.23
2023-04-30T09:32:25.930Z,49.73
2023-04-30T09:34:53.120Z,50.44
2023-04-30T09:37:19.757Z,48.73
2023-04-30T09:39:51.749Z,48.16
2023-04-30T09:42:19.602Z,48.85
2023-04-30T09:44:47.602Z,48.99
2023-04-30T09:47:19.790Z,47.47
2023-04-30T09:49:54.515Z,47.91
2023-04-30T09:52:21.763Z,47.45
2023-04-30T09:54:49.497Z,44.63
2023-04-30T09:57:17.128Z,47.70
2023-04-30T09:59:46.970Z,46.33
2023-04-30T10:02:16.549Z,46.50
2023-04-30T10:04:48.889Z,45.33
2023-04-30T10:07:20.872Z,46.19
2023-04-30T10:09:55.498Z,45.71
2023-04-30T10:12:27.442Z,46.81
2023-04-30T10:15:11.360Z,45.31
2023-04-30T10:17:44.154Z,46.55
2023-04-30T10:20:12.953Z,45.88
2023-04-30T10:22:41.757Z,46.62
2023-04-30T10:25:11.425Z,46.66
2023-04-30T10:27:39.177Z,45.56
2023-04-30T10:30:09.932Z,46.81
2023-04-30T10:32:52.551Z,45.37
2023-04-30T10:35:28.654Z,45.91
2023-04-30T10:38:03.550Z,45.21
2023-04-30T10:40:37.022Z,42.99
2023-04-30T10:43:03.601Z,46.13
2023-04-30T10:45:38.793Z,47.34
2023-04-30T10:48:07.020Z,44.63
2023-04-30T10:50:43.002Z,44.84
2023-04-30T10:53:18.417Z,47.51
2023-04-30T10:55:53.429Z,47.53
2023-04-30T10:58:34.129Z,45.91
2023-04-30T11:01:13.623Z,46.41
2023-04-30T11:03:43.091Z,45.08
2023-04-30T11:06:14.984Z,45.56
2023-04-30T11:08:46.246Z,46.20
2023-04-30T11:11:21.154Z,47.95
2023-04-30T11:13:59.536Z,45.78
2023-04-30T11:16:31.253Z,43.50
2023-04-30T11:19:09.474Z,43.39
2023-04-30T11:21:42.357Z,45.49
2023-04-30T11:24:08.961Z,43.76
2023-04-30T11:27:04.405Z,45.35
2023-04-30T11:29:32.054Z,46.85
2023-04-30T11:32:01.109Z,45.32
2023-04-30T11:34:27.718Z,47.45
2023-04-30T11:37:00.226Z,43.04
2023-04-30T11:39:29.176Z,44.70
2023-04-30T11:41:55.873Z,45.69
2023-04-30T11:44:31.072Z,45.87
2023-04-30T11:46:57.787Z,46.57
2023-04-30T11:49:24.488Z,48.92
2023-04-30T11:51:51.775Z,47.16
2023-04-30T11:54:18.719Z,46.12
2023-04-30T11:56:49.290Z,45.05
2023-04-30T11:59:17.521Z,45.46
2023-04-30T12:01:44.592Z,47.50
2023-04-30T12:04:11.441Z,47.48
2023-04-30T12:06:38.306Z,45.90
2023-04-30T12:09:07.282Z,46.73
2023-04-30T12:11:35.706Z,46.64
2023-04-30T12:14:07.569Z,46.43
2023-04-30T12:16:40.387Z,46.50
2023-04-30T12:19:07.152Z,46.82
2023-04-30T12:21:34.966Z,46.16
2023-04-30T12:24:03.296Z,47.67
2023-04-30T12:26:42.016Z,47.13
2023-04-30T12:29:12.680Z,45.90
2023-04-30T12:31:42.309Z,46.39
2023-04-30T12:34:10.798Z,47.23
2023-04-30T12:36:42.439Z,46.05
2023-04-30T12:39:11.724Z,45.39
2023-04-30T12:41:43.702Z,46.71
2023-04-30T12:44:24.728Z,46.24
2023-04-30T12:46:57.664Z,46.85
2023-04-30T12:49:29.644Z,47.95
2023-04-30T12:52:13.783Z,47.32
2023-04-30T12:54:40.510Z,47.08
2023-04-30T12:57:12.444Z,47.87
2023-04-30T12:59:40.543Z,46.75
2023-04-30T13:02:12.898Z,50.28
2023-04-30T13:04:41.373Z,46.68
2023-04-30T13:07:08.281Z,46.90
2023-04-30T13:09:36.680Z,46.74
2023-04-30T13:12:04.143Z,48.10
2023-04-30T13:14:34.160Z,46.24
2023-04-30T13:17:02.577Z,46.09
2023-04-30T13:19:30.252Z,47.04
2023-04-30T13:21:58.832Z,45.87
2023-04-30T13:24:25.487Z,44.55
2023-04-30T13:26:52.326Z,45.25
2023-04-30T13:29:20.985Z,45.12
2023-04-30T13:31:49.104Z,45.84
2023-04-30T13:34:15.964Z,44.65
2023-04-30T13:36:42.559Z,45.90
2023-04-30T13:39:09.119Z,46.94
2023-04-30T13:41:35.727Z,47.18
2023-04-30T13:44:02.257Z,46.68
2023-04-30T13:46:30.315Z,47.13
2023-04-30T13:48:57.037Z,46.39
2023-04-30T13:51:23.670Z,46.14
2023-04-30T13:53:50.430Z,46.99
2023-04-30T13:56:17.060Z,45.33
2023-04-30T13:58:44.044Z,46.87
2023-04-30T14:01:10.708Z,44.75
2023-04-30T14:03:37.580Z,45.66
2023-04-30T14:06:05.746Z,42.32
2023-04-30T14:08:33.680Z,42.96
2023-04-30T14:11:00.330Z,44.59
2023-04-30T14:13:26.914Z,42.77
2023-04-30T14:15:54.613Z,44.12
2023-04-30T14:18:22.792Z,44.50
2023-04-30T14:20:49.670Z,45.49
2023-04-30T14:23:16.310Z,45.47
2023-04-30T14:25:42.960Z,44.73
2023-04-30T14:28:09.461Z,44.18
2023-04-30T14:30:36.519Z,45.04
2023-04-30T14:33:03.187Z,46.68
2023-04-30T14:35:30.219Z,47.03
2023-04-30T14:37:56.817Z,45.56
2023-04-30T14:40:23.465Z,44.85
2023-04-30T14:42:50.499Z,45.56
2023-04-30T14:45:17.202Z,45.83
2023-04-30T14:47:43.986Z,45.72
2023-04-30T14:50:10.896Z,44.47
2023-04-30T14:52:38.586Z,45.14
2023-04-30T14:55:05.618Z,44.93
2023-04-30T14:57:33.512Z,45.50
2023-04-30T15:00:01.041Z,45.90
2023-04-30T15:02:27.853Z,45.70
2023-04-30T15:04:54.488Z,45.92
2023-04-30T15:07:21.115Z,45.59
2023-04-30T15:09:47.698Z,45.00
2023-04-30T15:12:14.396Z,45.56
2023-04-30T15:14:41.589Z,44.84
2023-04-30T15:17:08.381Z,45.76
2023-04-30T15:19:34.967Z,45.84
2023-04-30T15:22:01.644Z,45.99
2023-04-30T15:24:28.240Z,47.56
2023-04-30T15:26:55.405Z,45.86
2023-04-30T15:29:22.101Z,46.31
2023-04-30T15:31:51.791Z,47.33
2023-04-30T15:34:18.612Z,45.13
2023-04-30T15:36:45.414Z,47.21
2023-04-30T15:39:12.153Z,47.22
2023-04-30T15:41:38.879Z,46.43
2023-04-30T15:44:05.437Z,46.91
2023-04-30T15:46:33.581Z,46.27
2023-04-30T15:49:01.033Z,45.84
2023-04-30T15:51:29.286Z,47.00
2023-04-30T15:53:56.452Z,46.95
2023-04-30T15:56:25.728Z,47.91
2023-04-30T15:58:55.855Z,47.94
2023-04-30T16:01:23.452Z,48.16
2023-04-30T16:03:50.366Z,47.50
2023-04-30T16:06:17.409Z,48.22
2023-04-30T16:08:46.265Z,47.54
2023-04-30T16:11:12.940Z,46.75
2023-04-30T16:13:39.655Z,46.88
2023-04-30T16:16:08.565Z,46.70
2023-04-30T16:18:35.276Z,47.51
2023-04-30T16:21:02.171Z,47.99
2023-04-30T16:23:28.690Z,47.04
2023-04-30T16:25:56.338Z,45.99
2023-04-30T16:28:23.512Z,46.62
2023-04-30T16:30:50.774Z,46.65
2023-04-30T16:33:17.348Z,47.37
2023-04-30T16:35:44.399Z,47.98
2023-04-30T16:38:11.245Z,47.70
2023-04-30T16:40:37.875Z,48.49
2023-04-30T16:43:06.143Z,48.01
2023-04-30T16:45:33.100Z,47.90
2023-04-30T16:47:59.941Z,47.74
2023-04-30T16:50:26.956Z,48.40
2023-04-30T16:52:54.104Z,49.08
2023-04-30T16:55:20.761Z,48.53
2023-04-30T16:57:47.417Z,48.25
2023-04-30T17:00:14.553Z,48.17
2023-04-30T17:02:42.442Z,48.52
2023-04-30T17:05:11.230Z,47.52
2023-04-30T17:07:38.124Z,47.96
2023-04-30T17:10:06.152Z,47.72
2023-04-30T17:12:33.357Z,48.48
2023-04-30T17:14:59.837Z,48.25
2023-04-30T17:17:26.729Z,48.11
2023-04-30T17:19:53.502Z,48.74
2023-04-30T17:22:20.315Z,49.22
2023-04-30T17:24:46.980Z,48.87
2023-04-30T17:27:13.962Z,49.14
2023-04-30T17:29:41.024Z,50.11
2023-04-30T17:32:07.678Z,49.81
2023-04-30T17:34:34.245Z,49.76
2023-04-30T17:37:00.785Z,50.23
2023-04-30T17:39:28.786Z,49.57
2023-04-30T17:41:55.363Z,49.42
2023-04-30T17:44:21.882Z,50.53
2023-04-30T17:46:48.519Z,50.68
2023-04-30T17:49:15.399Z,51.28
2023-04-30T17:51:41.959Z,50.64
2023-04-30T17:54:08.527Z,50.67
2023-04-30T17:56:35.037Z,51.73
2023-04-30T17:59:01.848Z,51.20
2023-04-30T18:01:28.664Z,51.70
2023-04-30T18:03:55.564Z,51.43
2023-04-30T18:06:22.279Z,51.66
2023-04-30T18:08:48.885Z,52.01
2023-04-30T18:11:15.402Z,52.29
2023-04-30T18:13:42.140Z,52.61
2023-04-30T18:16:08.760Z,52.27
2023-04-30T18:18:35.432Z,52.78
2023-04-30T18:21:02.068Z,52.64
2023-04-30T18:23:28.659Z,53.32
2023-04-30T18:25:55.188Z,53.43
2023-04-30T18:28:21.761Z,53.56
2023-04-30T18:30:48.282Z,53.40
2023-04-30T18:33:15.115Z,53.46
2023-04-30T18:35:41.816Z,54.20
2023-04-30T18:38:08.356Z,53.96
2023-04-30T18:40:34.952Z,54.85
2023-04-30T18:43:01.540Z,54.21
2023-04-30T18:45:28.197Z,55.45
2023-04-30T18:47:55.652Z,56.25
2023-04-30T18:50:22.507Z,55.66
2023-04-30T18:52:49.462Z,55.80
2023-04-30T18:55:16.458Z,56.11
2023-04-30T18:57:43.498Z,56.06
2023-04-30T19:00:13.053Z,57.46
2023-04-30T19:02:40.445Z,57.85
2023-04-30T19:05:07.650Z,59.07
2023-04-30T19:07:34.273Z,59.37
2023-04-30T19:10:02.135Z,59.61
2023-04-30T19:12:28.784Z,60.25
2023-04-30T19:14:55.348Z,60.15
2023-04-30T19:17:22.004Z,59.69
2023-04-30T19:19:49.941Z,58.51
2023-04-30T19:22:17.149Z,60.43
2023-04-30T19:24:43.736Z,59.39
2023-04-30T19:27:10.837Z,60.38
2023-04-30T19:29:39.337Z,60.11
2023-04-30T19:32:06.606Z,61.72
2023-04-30T19:34:33.421Z,61.58
2023-04-30T19:37:00.572Z,62.64
2023-04-30T19:39:31.796Z,62.18
2023-04-30T19:41:58.861Z,61.89
2023-04-30T19:44:25.951Z,62.32
2023-04-30T19:46:52.601Z,62.52
2023-04-30T19:49:19.128Z,62.85
2023-04-30T19:51:45.800Z,63.16
2023-04-30T19:54:14.257Z,63.12
2023-04-30T19:56:44.425Z,63.42
2023-04-30T19:59:11.166Z,64.15
2023-04-30T20:01:38.361Z,64.04
2023-04-30T20:04:05.495Z,64.33
2023-04-30T20:06:32.986Z,65.29
2023-04-30T20:09:00.610Z,64.83
2023-04-30T20:11:27.816Z,64.97
2023-04-30T20:13:55.221Z,65.54
2023-04-30T20:16:21.935Z,65.34
2023-04-30T20:18:48.861Z,65.83
2023-04-30T20:21:17.103Z,65.84
2023-04-30T20:23:44.737Z,65.65
2023-04-30T20:26:11.416Z,66.39
2023-04-30T20:28:38.519Z,66.34
2023-04-30T20:31:06.839Z,66.03
2023-04-30T20:33:33.588Z,66.35
2023-04-30T20:36:00.589Z,67.20
2023-04-30T20:38:27.201Z,66.75
2023-04-30T20:40:53.784Z,67.24
2023-04-30T20:43:20.338Z,65.43
2023-04-30T20:45:47.523Z,66.67
2023-04-30T20:48:14.486Z,67.24
2023-04-30T20:50:41.300Z,67.07
2023-04-30T20:53:10.285Z,67.01
2023-04-30T20:55:40.585Z,66.99
2023-04-30T20:58:08.783Z,68.20
2023-04-30T21:00:36.111Z,67.69
2023-04-30T21:03:02.776Z,68.16
2023-04-30T21:05:30.166Z,68.36
2023-04-30T21:08:01.142Z,68.67
2023-04-30T21:10:35.383Z,66.94
2023-04-30T21:13:05.080Z,66.24
2023-04-30T21:15:36.085Z,66.81
2023-04-30T21:18:02.779Z,67.02
2023-04-30T21:20:31.191Z,65.84
2023-04-30T21:22:57.797Z,66.50
2023-04-30T21:25:24.364Z,66.26
2023-04-30T21:27:52.152Z,67.81
2023-04-30T21:30:19.046Z,66.65
2023-04-30T21:32:47.041Z,68.81
2023-04-30T21:35:14.339Z,66.91
2023-04-30T21:37:42.083Z,66.95
2023-04-30T21:40:09.180Z,68.00
2023-04-30T21:42:35.895Z,68.05
2023-04-30T21:45:02.703Z,68.82
2023-04-30T21:47:29.271Z,69.19
2023-04-30T21:49:56.010Z,69.17
2023-04-30T21:52:22.768Z,69.06
2023-04-30T21:54:49.949Z,69.51
2023-04-30T21:57:16.612Z,69.30
2023-04-30T21:59:45.510Z,70.06
2023-04-30T22:02:22.709Z,69.34
2023-04-30T22:04:50.125Z,70.27
2023-04-30T22:07:17.019Z,70.28
2023-04-30T22:09:44.923Z,70.79
2023-04-30T22:12:12.094Z,70.77
2023-04-30T22:14:39.198Z,70.35
2023-04-30T22:17:06.095Z,70.75
2023-04-30T22:19:32.666Z,69.90
2023-04-30T22:21:59.234Z,71.06
2023-04-30T22:24:25.784Z,71.22
2023-04-30T22:26:52.285Z,71.18
2023-04-30T22:29:19.604Z,71.32
2023-04-30T22:31:46.304Z,70.79
2023-04-30T22:34:15.299Z,71.35
2023-04-30T22:36:41.890Z,70.80
2023-04-30T22:39:08.496Z,71.18
2023-04-30T22:41:35.536Z,71.53
2023-04-30T22:44:02.226Z,71.31
2023-04-30T22:46:30.314Z,71.66
2023-04-30T22:48:57.358Z,71.78
2023-04-30T22:51:24.026Z,72.84
2023-04-30T22:53:50.664Z,72.08
2023-04-30T22:56:17.212Z,71.88
2023-04-30T22:58:43.771Z,72.53
2023-04-30T23:01:10.357Z,72.34
2023-04-30T23:03:38.437Z,72.45
2023-04-30T23:06:05.149Z,73.05
2023-04-30T23:08:32.248Z,73.00
2023-04-30T23:10:58.896Z,72.62
2023-04-30T23:13:25.462Z,73.03
2023-04-30T23:15:52.247Z,72.95
2023-04-30T23:18:19.630Z,73.45
2023-04-30T23:20:47.338Z,73.56
2023-04-30T23:23:13.860Z,73.93
2023-04-30T23:25:40.537Z,73.49
2023-04-30T23:28:07.390Z,74.53
2023-04-30T23:30:38.800Z,73.88
2023-04-30T23:33:05.802Z,74.00
2023-04-30T23:35:32.363Z,74.62
2023-04-30T23:37:58.885Z,74.98
2023-04-30T23:40:25.512Z,74.73
2023-04-30T23:42:52.007Z,74.98
2023-04-30T23:45:18.559Z,75.55
2023-04-30T23:47:45.167Z,75.35
2023-04-30T23:50:11.812Z,76.00
2023-04-30T23:52:38.692Z,75.71
2023-04-30T23:55:05.662Z,75.26
2023-04-30T23:57:32.251Z,75.56
2023-04-30T23:59:59.411Z,75.46
